sensor_id;sensor_type;location;lat;lon;timestamp;P1;durP1;ratioP1;P2;durP2;ratioP2
8592;SDS011;4334;49.982;8.398;2023-01-24T00:02:11;13.77;;;9.10;;
8592;SDS011;4334;49.982;8.398;2023-01-24T00:04:38;16.37;;;9.20;;
8592;SDS011;4334;49.982;8.398;2023-01-24T00:07:04;15.20;;;9.33;;
8592;SDS011;4334;49.982;8.398;2023-01-24T00:09:31;14.20;;;8.77;;
8592;SDS011;4334;49.982;8.398;2023-01-24T00:11:58;14.87;;;9.43;;
8592;SDS011;4334;49.982;8.398;2023-01-24T00:14:25;15.13;;;9.07;;
8592;SDS011;4334;49.982;8.398;2023-01-24T00:16:53;15.17;;;9.37;;
8592;SDS011;4334;49.982;8.398;2023-01-24T00:19:20;17.23;;;9.27;;
8592;SDS011;4334;49.982;8.398;2023-01-24T00:21:46;16.77;;;9.33;;
8592;SDS011;4334;49.982;8.398;2023-01-24T00:24:13;16.43;;;9.40;;
8592;SDS011;4334;49.982;8.398;2023-01-24T00:26:40;17.67;;;9.40;;
8592;SDS011;4334;49.982;8.398;2023-01-24T00:29:07;14.47;;;8.73;;
8592;SDS011;4334;49.982;8.398;2023-01-24T00:31:33;14.97;;;9.07;;
8592;SDS011;4334;49.982;8.398;2023-01-24T00:34:02;19.43;;;9.73;;
8592;SDS011;4334;49.982;8.398;2023-01-24T00:36:28;17.83;;;9.93;;
8592;SDS011;4334;49.982;8.398;2023-01-24T00:38:55;17.10;;;9.33;;
8592;SDS011;4334;49.982;8.398;2023-01-24T00:41:22;17.37;;;10.00;;
8592;SDS011;4334;49.982;8.398;2023-01-24T00:43:48;17.73;;;10.20;;
8592;SDS011;4334;49.982;8.398;2023-01-24T00:46:15;15.33;;;9.70;;
8592;SDS011;4334;49.982;8.398;2023-01-24T00:48:42;16.50;;;9.73;;
8592;SDS011;4334;49.982;8.398;2023-01-24T00:51:10;16.23;;;9.67;;
8592;SDS011;4334;49.982;8.398;2023-01-24T00:53:37;15.30;;;10.13;;
8592;SDS011;4334;49.982;8.398;2023-01-24T00:56:04;17.60;;;10.27;;
8592;SDS011;4334;49.982;8.398;2023-01-24T00:58:31;17.07;;;9.83;;
8592;SDS011;4334;49.982;8.398;2023-01-24T01:00:59;16.87;;;10.17;;
8592;SDS011;4334;49.982;8.398;2023-01-24T01:03:28;17.17;;;9.33;;
8592;SDS011;4334;49.982;8.398;2023-01-24T01:05:58;15.40;;;9.53;;
8592;SDS011;4334;49.982;8.398;2023-01-24T01:08:27;18.17;;;9.90;;
8592;SDS011;4334;49.982;8.398;2023-01-24T01:10:54;15.70;;;9.53;;
8592;SDS011;4334;49.982;8.398;2023-01-24T01:13:21;17.10;;;9.43;;
8592;SDS011;4334;49.982;8.398;2023-01-24T01:15:48;19.57;;;10.33;;
8592;SDS011;4334;49.982;8.398;2023-01-24T01:18:15;19.33;;;10.80;;
8592;SDS011;4334;49.982;8.398;2023-01-24T01:20:48;16.53;;;10.13;;
8592;SDS011;4334;49.982;8.398;2023-01-24T01:23:15;14.67;;;8.97;;
8592;SDS011;4334;49.982;8.398;2023-01-24T01:25:43;19.07;;;11.03;;
8592;SDS011;4334;49.982;8.398;2023-01-24T01:28:10;16.77;;;10.00;;
8592;SDS011;4334;49.982;8.398;2023-01-24T01:30:36;15.83;;;9.67;;
8592;SDS011;4334;49.982;8.398;2023-01-24T01:33:03;15.60;;;9.83;;
8592;SDS011;4334;49.982;8.398;2023-01-24T01:35:30;20.57;;;10.43;;
8592;SDS011;4334;49.982;8.398;2023-01-24T01:37:57;17.03;;;10.13;;
8592;SDS011;4334;49.982;8.398;2023-01-24T01:40:23;16.13;;;9.87;;
8592;SDS011;4334;49.982;8.398;2023-01-24T01:42:52;19.57;;;10.83;;
8592;SDS011;4334;49.982;8.398;2023-01-24T01:45:31;15.63;;;9.67;;
8592;SDS011;4334;49.982;8.398;2023-01-24T01:48:01;17.07;;;10.13;;
8592;SDS011;4334;49.982;8.398;2023-01-24T01:50:31;17.97;;;9.33;;
8592;SDS011;4334;49.982;8.398;2023-01-24T01:53:01;16.07;;;9.10;;
8592;SDS011;4334;49.982;8.398;2023-01-24T01:55:30;18.23;;;10.60;;
8592;SDS011;4334;49.982;8.398;2023-01-24T01:58:01;17.30;;;10.30;;
8592;SDS011;4334;49.982;8.398;2023-01-24T02:00:29;17.43;;;10.43;;
8592;SDS011;4334;49.982;8.398;2023-01-24T02:02:57;17.10;;;9.93;;
8592;SDS011;4334;49.982;8.398;2023-01-24T02:05:41;18.77;;;10.37;;
8592;SDS011;4334;49.982;8.398;2023-01-24T02:08:08;17.83;;;10.60;;
8592;SDS011;4334;49.982;8.398;2023-01-24T02:10:39;16.83;;;9.70;;
8592;SDS011;4334;49.982;8.398;2023-01-24T02:13:22;17.90;;;9.90;;
8592;SDS011;4334;49.982;8.398;2023-01-24T02:15:49;18.13;;;10.27;;
8592;SDS011;4334;49.982;8.398;2023-01-24T02:18:28;15.50;;;9.47;;
8592;SDS011;4334;49.982;8.398;2023-01-24T02:20:56;17.20;;;10.10;;
8592;SDS011;4334;49.982;8.398;2023-01-24T02:23:24;18.17;;;10.27;;
8592;SDS011;4334;49.982;8.398;2023-01-24T02:26:04;20.23;;;10.67;;
8592;SDS011;4334;49.982;8.398;2023-01-24T02:28:33;15.13;;;9.53;;
8592;SDS011;4334;49.982;8.398;2023-01-24T02:31:00;16.93;;;9.80;;
8592;SDS011;4334;49.982;8.398;2023-01-24T02:33:28;18.93;;;10.63;;
8592;SDS011;4334;49.982;8.398;2023-01-24T02:36:06;17.00;;;9.90;;
8592;SDS011;4334;49.982;8.398;2023-01-24T02:38:40;16.13;;;9.50;;
8592;SDS011;4334;49.982;8.398;2023-01-24T02:41:11;17.60;;;9.83;;
8592;SDS011;4334;49.982;8.398;2023-01-24T02:43:40;18.27;;;10.30;;
8592;SDS011;4334;49.982;8.398;2023-01-24T02:46:10;18.67;;;10.03;;
8592;SDS011;4334;49.982;8.398;2023-01-24T02:48:37;17.80;;;10.70;;
8592;SDS011;4334;49.982;8.398;2023-01-24T02:51:04;16.93;;;9.97;;
8592;SDS011;4334;49.982;8.398;2023-01-24T02:53:48;17.47;;;9.97;;
8592;SDS011;4334;49.982;8.398;2023-01-24T02:56:17;18.07;;;10.13;;
8592;SDS011;4334;49.982;8.398;2023-01-24T02:59:01;20.27;;;10.53;;
8592;SDS011;4334;49.982;8.398;2023-01-24T03:01:27;17.43;;;9.37;;
8592;SDS011;4334;49.982;8.398;2023-01-24T03:03:56;20.63;;;11.07;;
8592;SDS011;4334;49.982;8.398;2023-01-24T03:06:24;16.87;;;10.23;;
8592;SDS011;4334;49.982;8.398;2023-01-24T03:08:51;19.33;;;11.30;;
8592;SDS011;4334;49.982;8.398;2023-01-24T03:11:19;21.13;;;11.20;;
8592;SDS011;4334;49.982;8.398;2023-01-24T03:13:45;20.23;;;11.20;;
8592;SDS011;4334;49.982;8.398;2023-01-24T03:16:30;21.10;;;10.30;;
8592;SDS011;4334;49.982;8.398;2023-01-24T03:19:14;19.00;;;10.70;;
8592;SDS011;4334;49.982;8.398;2023-01-24T03:21:58;18.97;;;10.30;;
8592;SDS011;4334;49.982;8.398;2023-01-24T03:24:43;17.53;;;10.63;;
8592;SDS011;4334;49.982;8.398;2023-01-24T03:27:28;20.10;;;10.83;;
8592;SDS011;4334;49.982;8.398;2023-01-24T03:30:13;16.80;;;10.10;;
8592;SDS011;4334;49.982;8.398;2023-01-24T03:32:58;18.27;;;10.80;;
8592;SDS011;4334;49.982;8.398;2023-01-24T03:35:42;20.27;;;10.30;;
8592;SDS011;4334;49.982;8.398;2023-01-24T03:38:19;21.80;;;11.60;;
8592;SDS011;4334;49.982;8.398;2023-01-24T03:41:04;21.03;;;11.70;;
8592;SDS011;4334;49.982;8.398;2023-01-24T03:43:32;21.50;;;11.80;;
8592;SDS011;4334;49.982;8.398;2023-01-24T03:45:59;20.30;;;11.30;;
8592;SDS011;4334;49.982;8.398;2023-01-24T03:48:26;19.70;;;10.87;;
8592;SDS011;4334;49.982;8.398;2023-01-24T03:50:59;21.70;;;11.33;;
8592;SDS011;4334;49.982;8.398;2023-01-24T03:53:43;20.23;;;10.63;;
8592;SDS011;4334;49.982;8.398;2023-01-24T03:56:10;21.77;;;11.50;;
8592;SDS011;4334;49.982;8.398;2023-01-24T03:58:38;19.17;;;11.10;;
8592;SDS011;4334;49.982;8.398;2023-01-24T04:01:05;20.30;;;12.17;;
8592;SDS011;4334;49.982;8.398;2023-01-24T04:03:32;19.77;;;11.60;;
8592;SDS011;4334;49.982;8.398;2023-01-24T04:05:59;20.27;;;11.40;;
8592;SDS011;4334;49.982;8.398;2023-01-24T04:08:26;19.30;;;10.97;;
8592;SDS011;4334;49.982;8.398;2023-01-24T04:10:54;20.53;;;11.40;;
8592;SDS011;4334;49.982;8.398;2023-01-24T04:13:21;19.93;;;10.90;;
8592;SDS011;4334;49.982;8.398;2023-01-24T04:15:49;21.87;;;11.53;;
8592;SDS011;4334;49.982;8.398;2023-01-24T04:18:16;19.97;;;11.77;;
8592;SDS011;4334;49.982;8.398;2023-01-24T04:20:43;20.73;;;11.17;;
8592;SDS011;4334;49.982;8.398;2023-01-24T04:23:10;22.27;;;11.73;;
8592;SDS011;4334;49.982;8.398;2023-01-24T04:25:37;20.83;;;11.37;;
8592;SDS011;4334;49.982;8.398;2023-01-24T04:28:04;23.47;;;12.30;;
8592;SDS011;4334;49.982;8.398;2023-01-24T04:30:31;20.00;;;10.83;;
8592;SDS011;4334;49.982;8.398;2023-01-24T04:33:00;19.37;;;10.97;;
8592;SDS011;4334;49.982;8.398;2023-01-24T04:35:27;19.33;;;11.47;;
8592;SDS011;4334;49.982;8.398;2023-01-24T04:37:58;19.20;;;11.07;;
8592;SDS011;4334;49.982;8.398;2023-01-24T04:40:26;21.63;;;11.40;;
8592;SDS011;4334;49.982;8.398;2023-01-24T04:42:54;19.63;;;11.27;;
8592;SDS011;4334;49.982;8.398;2023-01-24T04:45:21;18.10;;;10.43;;
8592;SDS011;4334;49.982;8.398;2023-01-24T04:47:48;17.53;;;10.27;;
8592;SDS011;4334;49.982;8.398;2023-01-24T04:50:16;16.33;;;10.47;;
8592;SDS011;4334;49.982;8.398;2023-01-24T04:52:43;20.23;;;10.80;;
8592;SDS011;4334;49.982;8.398;2023-01-24T04:55:10;18.67;;;10.47;;
8592;SDS011;4334;49.982;8.398;2023-01-24T04:57:36;18.83;;;10.17;;
8592;SDS011;4334;49.982;8.398;2023-01-24T05:00:04;18.93;;;10.90;;
8592;SDS011;4334;49.982;8.398;2023-01-24T05:02:32;18.40;;;9.80;;
8592;SDS011;4334;49.982;8.398;2023-01-24T05:05:00;14.97;;;9.47;;
8592;SDS011;4334;49.982;8.398;2023-01-24T05:07:28;17.53;;;10.37;;
8592;SDS011;4334;49.982;8.398;2023-01-24T05:09:55;17.27;;;9.77;;
8592;SDS011;4334;49.982;8.398;2023-01-24T05:12:22;17.47;;;9.67;;
8592;SDS011;4334;49.982;8.398;2023-01-24T05:14:49;18.47;;;10.20;;
8592;SDS011;4334;49.982;8.398;2023-01-24T05:17:16;19.00;;;10.47;;
8592;SDS011;4334;49.982;8.398;2023-01-24T05:19:43;18.40;;;9.70;;
8592;SDS011;4334;49.982;8.398;2023-01-24T05:22:09;16.83;;;10.17;;
8592;SDS011;4334;49.982;8.398;2023-01-24T05:24:38;17.37;;;9.97;;
8592;SDS011;4334;49.982;8.398;2023-01-24T05:27:04;16.13;;;9.67;;
8592;SDS011;4334;49.982;8.398;2023-01-24T05:29:31;16.63;;;9.47;;
8592;SDS011;4334;49.982;8.398;2023-01-24T05:31:58;17.73;;;9.67;;
8592;SDS011;4334;49.982;8.398;2023-01-24T05:34:24;17.43;;;10.03;;
8592;SDS011;4334;49.982;8.398;2023-01-24T05:36:51;17.90;;;9.60;;
8592;SDS011;4334;49.982;8.398;2023-01-24T05:39:18;17.77;;;9.97;;
8592;SDS011;4334;49.982;8.398;2023-01-24T05:41:47;16.37;;;9.60;;
8592;SDS011;4334;49.982;8.398;2023-01-24T05:44:13;16.20;;;9.47;;
8592;SDS011;4334;49.982;8.398;2023-01-24T05:46:40;17.47;;;9.93;;
8592;SDS011;4334;49.982;8.398;2023-01-24T05:49:08;19.43;;;9.87;;
8592;SDS011;4334;49.982;8.398;2023-01-24T05:51:35;15.70;;;9.67;;
8592;SDS011;4334;49.982;8.398;2023-01-24T05:54:02;16.60;;;9.60;;
8592;SDS011;4334;49.982;8.398;2023-01-24T05:56:29;18.77;;;9.33;;
8592;SDS011;4334;49.982;8.398;2023-01-24T05:58:57;18.17;;;9.90;;
8592;SDS011;4334;49.982;8.398;2023-01-24T06:01:26;16.83;;;9.50;;
8592;SDS011;4334;49.982;8.398;2023-01-24T06:03:53;17.70;;;9.83;;
8592;SDS011;4334;49.982;8.398;2023-01-24T06:06:20;15.97;;;9.73;;
8592;SDS011;4334;49.982;8.398;2023-01-24T06:08:49;15.70;;;9.37;;
8592;SDS011;4334;49.982;8.398;2023-01-24T06:11:17;15.40;;;9.47;;
8592;SDS011;4334;49.982;8.398;2023-01-24T06:13:44;16.83;;;9.63;;
8592;SDS011;4334;49.982;8.398;2023-01-24T06:16:14;18.93;;;9.63;;
8592;SDS011;4334;49.982;8.398;2023-01-24T06:18:42;19.60;;;10.53;;
8592;SDS011;4334;49.982;8.398;2023-01-24T06:21:14;17.10;;;10.10;;
8592;SDS011;4334;49.982;8.398;2023-01-24T06:23:50;17.70;;;9.53;;
8592;SDS011;4334;49.982;8.398;2023-01-24T06:26:17;14.87;;;9.03;;
8592;SDS011;4334;49.982;8.398;2023-01-24T06:28:44;16.13;;;9.40;;
8592;SDS011;4334;49.982;8.398;2023-01-24T06:31:17;16.17;;;9.60;;
8592;SDS011;4334;49.982;8.398;2023-01-24T06:33:55;17.73;;;9.53;;
8592;SDS011;4334;49.982;8.398;2023-01-24T06:36:39;16.63;;;10.17;;
8592;SDS011;4334;49.982;8.398;2023-01-24T06:39:17;19.17;;;11.17;;
8592;SDS011;4334;49.982;8.398;2023-01-24T06:41:46;19.10;;;10.57;;
8592;SDS011;4334;49.982;8.398;2023-01-24T06:44:13;21.10;;;10.77;;
8592;SDS011;4334;49.982;8.398;2023-01-24T06:46:42;20.00;;;10.73;;
8592;SDS011;4334;49.982;8.398;2023-01-24T06:49:09;18.83;;;11.07;;
8592;SDS011;4334;49.982;8.398;2023-01-24T06:51:37;18.60;;;10.40;;
8592;SDS011;4334;49.982;8.398;2023-01-24T06:54:04;18.60;;;9.67;;
8592;SDS011;4334;49.982;8.398;2023-01-24T06:56:31;20.07;;;10.50;;
8592;SDS011;4334;49.982;8.398;2023-01-24T06:58:58;17.10;;;10.20;;
8592;SDS011;4334;49.982;8.398;2023-01-24T07:01:25;15.90;;;9.70;;
8592;SDS011;4334;49.982;8.398;2023-01-24T07:03:54;17.13;;;9.90;;
8592;SDS011;4334;49.982;8.398;2023-01-24T07:06:21;17.40;;;9.77;;
8592;SDS011;4334;49.982;8.398;2023-01-24T07:08:48;17.97;;;9.87;;
8592;SDS011;4334;49.982;8.398;2023-01-24T07:11:15;20.27;;;9.67;;
8592;SDS011;4334;49.982;8.398;2023-01-24T07:13:42;19.13;;;10.03;;
8592;SDS011;4334;49.982;8.398;2023-01-24T07:16:09;16.07;;;9.20;;
8592;SDS011;4334;49.982;8.398;2023-01-24T07:18:36;16.00;;;9.77;;
8592;SDS011;4334;49.982;8.398;2023-01-24T07:21:08;17.93;;;9.83;;
8592;SDS011;4334;49.982;8.398;2023-01-24T07:23:36;17.33;;;10.20;;
8592;SDS011;4334;49.982;8.398;2023-01-24T07:26:04;18.57;;;10.60;;
8592;SDS011;4334;49.982;8.398;2023-01-24T07:28:36;14.80;;;9.40;;
8592;SDS011;4334;49.982;8.398;2023-01-24T07:31:03;17.00;;;9.90;;
8592;SDS011;4334;49.982;8.398;2023-01-24T07:33:30;17.27;;;9.80;;
8592;SDS011;4334;49.982;8.398;2023-01-24T07:35:57;17.13;;;9.97;;
8592;SDS011;4334;49.982;8.398;2023-01-24T07:38:26;16.90;;;9.53;;
8592;SDS011;4334;49.982;8.398;2023-01-24T07:40:53;16.40;;;9.80;;
8592;SDS011;4334;49.982;8.398;2023-01-24T07:43:19;13.77;;;8.47;;
8592;SDS011;4334;49.982;8.398;2023-01-24T07:45:46;17.20;;;8.80;;
8592;SDS011;4334;49.982;8.398;2023-01-24T07:48:13;17.30;;;8.70;;
8592;SDS011;4334;49.982;8.398;2023-01-24T07:50:40;15.93;;;8.73;;
8592;SDS011;4334;49.982;8.398;2023-01-24T07:53:07;15.77;;;9.23;;
8592;SDS011;4334;49.982;8.398;2023-01-24T07:55:35;14.80;;;9.50;;
8592;SDS011;4334;49.982;8.398;2023-01-24T07:58:02;14.97;;;9.17;;
8592;SDS011;4334;49.982;8.398;2023-01-24T08:00:29;16.37;;;9.40;;
8592;SDS011;4334;49.982;8.398;2023-01-24T08:02:57;16.43;;;9.47;;
8592;SDS011;4334;49.982;8.398;2023-01-24T08:05:24;17.67;;;9.73;;
8592;SDS011;4334;49.982;8.398;2023-01-24T08:07:51;19.53;;;10.20;;
8592;SDS011;4334;49.982;8.398;2023-01-24T08:10:19;15.13;;;9.40;;
8592;SDS011;4334;49.982;8.398;2023-01-24T08:12:48;17.87;;;9.80;;
8592;SDS011;4334;49.982;8.398;2023-01-24T08:15:15;18.50;;;9.93;;
8592;SDS011;4334;49.982;8.398;2023-01-24T08:17:42;21.17;;;10.53;;
8592;SDS011;4334;49.982;8.398;2023-01-24T08:20:10;19.00;;;10.73;;
8592;SDS011;4334;49.982;8.398;2023-01-24T08:22:37;18.57;;;10.47;;
8592;SDS011;4334;49.982;8.398;2023-01-24T08:25:05;15.87;;;9.20;;
8592;SDS011;4334;49.982;8.398;2023-01-24T08:27:32;17.93;;;10.57;;
8592;SDS011;4334;49.982;8.398;2023-01-24T08:30:00;16.43;;;9.30;;
8592;SDS011;4334;49.982;8.398;2023-01-24T08:32:27;17.80;;;9.33;;
8592;SDS011;4334;49.982;8.398;2023-01-24T08:34:56;16.47;;;8.57;;
8592;SDS011;4334;49.982;8.398;2023-01-24T08:37:23;19.33;;;10.00;;
8592;SDS011;4334;49.982;8.398;2023-01-24T08:39:50;14.43;;;8.83;;
8592;SDS011;4334;49.982;8.398;2023-01-24T08:42:17;17.30;;;10.03;;
8592;SDS011;4334;49.982;8.398;2023-01-24T08:44:43;18.07;;;9.47;;
8592;SDS011;4334;49.982;8.398;2023-01-24T08:47:12;16.80;;;9.63;;
8592;SDS011;4334;49.982;8.398;2023-01-24T08:49:38;16.23;;;9.73;;
8592;SDS011;4334;49.982;8.398;2023-01-24T08:52:05;15.93;;;8.53;;
8592;SDS011;4334;49.982;8.398;2023-01-24T08:54:32;14.80;;;9.07;;
8592;SDS011;4334;49.982;8.398;2023-01-24T08:57:00;18.47;;;9.80;;
8592;SDS011;4334;49.982;8.398;2023-01-24T08:59:28;16.47;;;9.30;;
8592;SDS011;4334;49.982;8.398;2023-01-24T09:01:55;13.40;;;7.97;;
8592;SDS011;4334;49.982;8.398;2023-01-24T09:04:24;14.17;;;8.30;;
8592;SDS011;4334;49.982;8.398;2023-01-24T09:06:51;14.60;;;8.20;;
8592;SDS011;4334;49.982;8.398;2023-01-24T09:09:19;13.60;;;8.33;;
8592;SDS011;4334;49.982;8.398;2023-01-24T09:11:45;13.53;;;8.13;;
8592;SDS011;4334;49.982;8.398;2023-01-24T09:14:12;12.63;;;7.43;;
8592;SDS011;4334;49.982;8.398;2023-01-24T09:16:39;12.93;;;7.37;;
8592;SDS011;4334;49.982;8.398;2023-01-24T09:19:06;12.63;;;7.23;;
8592;SDS011;4334;49.982;8.398;2023-01-24T09:21:34;17.13;;;9.17;;
8592;SDS011;4334;49.982;8.398;2023-01-24T09:24:01;13.10;;;8.73;;
8592;SDS011;4334;49.982;8.398;2023-01-24T09:26:28;14.67;;;8.67;;
8592;SDS011;4334;49.982;8.398;2023-01-24T09:28:55;14.90;;;9.50;;
8592;SDS011;4334;49.982;8.398;2023-01-24T09:31:22;17.87;;;9.57;;
8592;SDS011;4334;49.982;8.398;2023-01-24T09:33:48;17.23;;;9.47;;
8592;SDS011;4334;49.982;8.398;2023-01-24T09:36:15;15.13;;;9.10;;
8592;SDS011;4334;49.982;8.398;2023-01-24T09:38:43;13.57;;;8.17;;
8592;SDS011;4334;49.982;8.398;2023-01-24T09:41:13;13.97;;;8.17;;
8592;SDS011;4334;49.982;8.398;2023-01-24T09:43:48;16.20;;;8.83;;
8592;SDS011;4334;49.982;8.398;2023-01-24T09:46:22;14.13;;;8.43;;
8592;SDS011;4334;49.982;8.398;2023-01-24T09:48:56;13.83;;;8.33;;
8592;SDS011;4334;49.982;8.398;2023-01-24T09:51:29;17.80;;;8.70;;
8592;SDS011;4334;49.982;8.398;2023-01-24T09:54:01;14.23;;;8.73;;
8592;SDS011;4334;49.982;8.398;2023-01-24T09:56:32;16.77;;;8.80;;
8592;SDS011;4334;49.982;8.398;2023-01-24T09:59:16;15.13;;;8.87;;
8592;SDS011;4334;49.982;8.398;2023-01-24T10:01:46;14.77;;;8.53;;
8592;SDS011;4334;49.982;8.398;2023-01-24T10:04:15;14.53;;;8.97;;
8592;SDS011;4334;49.982;8.398;2023-01-24T10:06:49;13.70;;;8.53;;
8592;SDS011;4334;49.982;8.398;2023-01-24T10:09:43;13.77;;;8.07;;
8592;SDS011;4334;49.982;8.398;2023-01-24T10:12:20;14.60;;;8.17;;
8592;SDS011;4334;49.982;8.398;2023-01-24T10:15:03;13.97;;;8.23;;
8592;SDS011;4334;49.982;8.398;2023-01-24T10:17:44;15.40;;;8.60;;
8592;SDS011;4334;49.982;8.398;2023-01-24T10:20:28;14.60;;;8.87;;
8592;SDS011;4334;49.982;8.398;2023-01-24T10:23:05;13.10;;;9.00;;
8592;SDS011;4334;49.982;8.398;2023-01-24T10:25:44;13.73;;;8.33;;
8592;SDS011;4334;49.982;8.398;2023-01-24T10:28:18;13.30;;;8.10;;
8592;SDS011;4334;49.982;8.398;2023-01-24T10:30:49;13.83;;;8.43;;
8592;SDS011;4334;49.982;8.398;2023-01-24T10:33:22;13.97;;;8.83;;
8592;SDS011;4334;49.982;8.398;2023-01-24T10:35:56;13.03;;;8.13;;
8592;SDS011;4334;49.982;8.398;2023-01-24T10:38:24;13.87;;;8.50;;
8592;SDS011;4334;49.982;8.398;2023-01-24T10:40:54;14.33;;;8.40;;
8592;SDS011;4334;49.982;8.398;2023-01-24T10:43:22;13.53;;;8.03;;
8592;SDS011;4334;49.982;8.398;2023-01-24T10:45:55;13.70;;;7.63;;
8592;SDS011;4334;49.982;8.398;2023-01-24T10:48:35;14.20;;;8.33;;
8592;SDS011;4334;49.982;8.398;2023-01-24T10:51:13;13.30;;;8.17;;
8592;SDS011;4334;49.982;8.398;2023-01-24T10:53:41;13.40;;;8.33;;
8592;SDS011;4334;49.982;8.398;2023-01-24T10:56:10;12.57;;;8.07;;
8592;SDS011;4334;49.982;8.398;2023-01-24T10:58:39;13.17;;;7.57;;
8592;SDS011;4334;49.982;8.398;2023-01-24T11:01:15;15.10;;;8.37;;
8592;SDS011;4334;49.982;8.398;2023-01-24T11:03:44;13.43;;;8.43;;
8592;SDS011;4334;49.982;8.398;2023-01-24T11:06:22;12.70;;;7.33;;
8592;SDS011;4334;49.982;8.398;2023-01-24T11:08:53;13.07;;;7.83;;
8592;SDS011;4334;49.982;8.398;2023-01-24T11:11:23;11.20;;;7.50;;
8592;SDS011;4334;49.982;8.398;2023-01-24T11:13:54;11.83;;;7.50;;
8592;SDS011;4334;49.982;8.398;2023-01-24T11:16:23;15.70;;;8.00;;
8592;SDS011;4334;49.982;8.398;2023-01-24T11:18:54;9.63;;;6.63;;
8592;SDS011;4334;49.982;8.398;2023-01-24T11:21:24;11.10;;;7.10;;
8592;SDS011;4334;49.982;8.398;2023-01-24T11:23:59;10.50;;;6.33;;
8592;SDS011;4334;49.982;8.398;2023-01-24T11:26:51;10.60;;;6.83;;
8592;SDS011;4334;49.982;8.398;2023-01-24T11:29:20;10.17;;;6.40;;
8592;SDS011;4334;49.982;8.398;2023-01-24T11:31:48;11.77;;;7.20;;
8592;SDS011;4334;49.982;8.398;2023-01-24T11:37:08;11.53;;;7.53;;
8592;SDS011;4334;49.982;8.398;2023-01-24T11:39:49;12.87;;;7.73;;
8592;SDS011;4334;49.982;8.398;2023-01-24T11:42:28;13.33;;;7.70;;
8592;SDS011;4334;49.982;8.398;2023-01-24T11:47:51;14.27;;;8.47;;
8592;SDS011;4334;49.982;8.398;2023-01-24T11:50:33;10.87;;;7.23;;
8592;SDS011;4334;49.982;8.398;2023-01-24T11:53:17;14.70;;;8.13;;
8592;SDS011;4334;49.982;8.398;2023-01-24T11:55:57;11.33;;;7.30;;
8592;SDS011;4334;49.982;8.398;2023-01-24T11:58:42;14.33;;;7.97;;
8592;SDS011;4334;49.982;8.398;2023-01-24T12:01:19;11.80;;;7.23;;
8592;SDS011;4334;49.982;8.398;2023-01-24T12:03:55;11.40;;;7.10;;
8592;SDS011;4334;49.982;8.398;2023-01-24T12:06:52;9.83;;;6.67;;
8592;SDS011;4334;49.982;8.398;2023-01-24T12:09:25;11.00;;;6.47;;
8592;SDS011;4334;49.982;8.398;2023-01-24T12:11:57;10.20;;;6.57;;
8592;SDS011;4334;49.982;8.398;2023-01-24T12:14:38;11.33;;;7.20;;
8592;SDS011;4334;49.982;8.398;2023-01-24T12:17:25;11.57;;;7.10;;
8592;SDS011;4334;49.982;8.398;2023-01-24T12:20:10;9.20;;;6.37;;
8592;SDS011;4334;49.982;8.398;2023-01-24T12:22:46;12.53;;;7.10;;
8592;SDS011;4334;49.982;8.398;2023-01-24T12:25:17;12.13;;;7.00;;
8592;SDS011;4334;49.982;8.398;2023-01-24T12:27:49;12.27;;;7.10;;
8592;SDS011;4334;49.982;8.398;2023-01-24T12:30:22;11.93;;;7.30;;
8592;SDS011;4334;49.982;8.398;2023-01-24T12:32:57;14.53;;;7.87;;
8592;SDS011;4334;49.982;8.398;2023-01-24T12:35:29;12.83;;;6.87;;
8592;SDS011;4334;49.982;8.398;2023-01-24T12:38:00;11.23;;;6.57;;
8592;SDS011;4334;49.982;8.398;2023-01-24T12:40:35;12.07;;;7.20;;
8592;SDS011;4334;49.982;8.398;2023-01-24T12:43:12;8.87;;;6.20;;
8592;SDS011;4334;49.982;8.398;2023-01-24T12:45:51;10.77;;;7.00;;
8592;SDS011;4334;49.982;8.398;2023-01-24T12:48:27;11.77;;;7.20;;
8592;SDS011;4334;49.982;8.398;2023-01-24T12:51:02;10.70;;;7.00;;
8592;SDS011;4334;49.982;8.398;2023-01-24T12:53:38;10.30;;;7.00;;
8592;SDS011;4334;49.982;8.398;2023-01-24T12:56:11;10.47;;;6.63;;
8592;SDS011;4334;49.982;8.398;2023-01-24T12:58:43;11.27;;;7.07;;
8592;SDS011;4334;49.982;8.398;2023-01-24T13:01:22;9.00;;;6.30;;
8592;SDS011;4334;49.982;8.398;2023-01-24T13:04:04;10.90;;;7.13;;
8592;SDS011;4334;49.982;8.398;2023-01-24T13:06:47;12.50;;;7.80;;
8592;SDS011;4334;49.982;8.398;2023-01-24T13:09:21;12.83;;;6.80;;
8592;SDS011;4334;49.982;8.398;2023-01-24T13:11:55;20.00;;;7.17;;
8592;SDS011;4334;49.982;8.398;2023-01-24T13:14:26;12.30;;;7.77;;
8592;SDS011;4334;49.982;8.398;2023-01-24T13:17:04;11.03;;;7.30;;
8592;SDS011;4334;49.982;8.398;2023-01-24T13:20:07;12.37;;;7.40;;
8592;SDS011;4334;49.982;8.398;2023-01-24T13:23:01;13.77;;;7.50;;
8592;SDS011;4334;49.982;8.398;2023-01-24T13:25:54;11.53;;;7.03;;
8592;SDS011;4334;49.982;8.398;2023-01-24T13:28:43;11.80;;;7.70;;
8592;SDS011;4334;49.982;8.398;2023-01-24T13:31:19;10.20;;;6.73;;
8592;SDS011;4334;49.982;8.398;2023-01-24T13:33:53;11.30;;;6.97;;
8592;SDS011;4334;49.982;8.398;2023-01-24T13:36:25;12.40;;;7.47;;
8592;SDS011;4334;49.982;8.398;2023-01-24T13:38:57;13.23;;;7.53;;
8592;SDS011;4334;49.982;8.398;2023-01-24T13:41:35;11.33;;;7.43;;
8592;SDS011;4334;49.982;8.398;2023-01-24T13:44:03;11.20;;;7.33;;
8592;SDS011;4334;49.982;8.398;2023-01-24T13:46:57;12.40;;;7.50;;
8592;SDS011;4334;49.982;8.398;2023-01-24T13:49:38;13.10;;;7.47;;
8592;SDS011;4334;49.982;8.398;2023-01-24T13:55:05;10.30;;;6.87;;
8592;SDS011;4334;49.982;8.398;2023-01-24T13:58:22;12.20;;;7.20;;
8592;SDS011;4334;49.982;8.398;2023-01-24T14:00:51;14.43;;;7.53;;
8592;SDS011;4334;49.982;8.398;2023-01-24T14:03:21;11.83;;;7.43;;
8592;SDS011;4334;49.982;8.398;2023-01-24T14:05:53;13.70;;;7.50;;
8592;SDS011;4334;49.982;8.398;2023-01-24T14:08:36;12.47;;;7.30;;
8592;SDS011;4334;49.982;8.398;2023-01-24T14:13:56;11.33;;;6.83;;
8592;SDS011;4334;49.982;8.398;2023-01-24T14:19:25;12.43;;;7.23;;
8592;SDS011;4334;49.982;8.398;2023-01-24T14:22:04;14.27;;;7.27;;
8592;SDS011;4334;49.982;8.398;2023-01-24T14:24:48;11.60;;;7.23;;
8592;SDS011;4334;49.982;8.398;2023-01-24T14:27:32;11.77;;;7.17;;
8592;SDS011;4334;49.982;8.398;2023-01-24T14:30:10;13.43;;;7.37;;
8592;SDS011;4334;49.982;8.398;2023-01-24T14:32:49;12.23;;;7.33;;
8592;SDS011;4334;49.982;8.398;2023-01-24T14:35:20;12.37;;;7.17;;
8592;SDS011;4334;49.982;8.398;2023-01-24T14:37:50;11.63;;;7.17;;
8592;SDS011;4334;49.982;8.398;2023-01-24T14:40:19;12.03;;;7.60;;
8592;SDS011;4334;49.982;8.398;2023-01-24T14:42:47;12.50;;;7.53;;
8592;SDS011;4334;49.982;8.398;2023-01-24T14:45:16;13.50;;;7.67;;
8592;SDS011;4334;49.982;8.398;2023-01-24T14:47:46;12.30;;;7.40;;
8592;SDS011;4334;49.982;8.398;2023-01-24T14:50:21;10.93;;;7.10;;
8592;SDS011;4334;49.982;8.398;2023-01-24T14:52:52;13.27;;;7.77;;
8592;SDS011;4334;49.982;8.398;2023-01-24T14:55:29;11.30;;;6.93;;
8592;SDS011;4334;49.982;8.398;2023-01-24T14:58:15;12.00;;;7.03;;
8592;SDS011;4334;49.982;8.398;2023-01-24T15:00:46;13.73;;;7.37;;
8592;SDS011;4334;49.982;8.398;2023-01-24T15:03:17;11.47;;;7.40;;
8592;SDS011;4334;49.982;8.398;2023-01-24T15:05:50;11.90;;;7.60;;
8592;SDS011;4334;49.982;8.398;2023-01-24T15:08:23;12.03;;;7.20;;
8592;SDS011;4334;49.982;8.398;2023-01-24T15:10:52;12.37;;;7.13;;
8592;SDS011;4334;49.982;8.398;2023-01-24T15:13:23;11.13;;;7.23;;
8592;SDS011;4334;49.982;8.398;2023-01-24T15:15:52;12.10;;;7.47;;
8592;SDS011;4334;49.982;8.398;2023-01-24T15:18:29;12.93;;;6.93;;
8592;SDS011;4334;49.982;8.398;2023-01-24T15:21:04;13.33;;;7.70;;
8592;SDS011;4334;49.982;8.398;2023-01-24T15:23:32;10.93;;;6.93;;
8592;SDS011;4334;49.982;8.398;2023-01-24T15:32:18;13.80;;;7.97;;
8592;SDS011;4334;49.982;8.398;2023-01-24T15:40:46;13.27;;;7.30;;
8592;SDS011;4334;49.982;8.398;2023-01-24T15:43:19;14.97;;;7.70;;
8592;SDS011;4334;49.982;8.398;2023-01-24T15:46:13;13.17;;;7.53;;
8592;SDS011;4334;49.982;8.398;2023-01-24T15:49:20;12.93;;;7.80;;
8592;SDS011;4334;49.982;8.398;2023-01-24T15:51:59;11.77;;;7.20;;